createdAt,value
2022-12-03T00:02:15.460Z,32.85
2022-12-03T00:04:35.463Z,30.08
2022-12-03T00:06:55.591Z,30.60
2022-12-03T00:09:15.224Z,31.25
2022-12-03T00:11:35.942Z,32.80
2022-12-03T00:13:56.077Z,26.40
2022-12-03T00:16:16.304Z,27.17
2022-12-03T00:18:36.288Z,26.90
2022-12-03T00:20:56.046Z,31.83
2022-12-03T00:23:15.567Z,29.80
2022-12-03T00:25:35.303Z,29.30
2022-12-03T00:27:55.264Z,25.33
2022-12-03T00:30:15.030Z,26.33
2022-12-03T00:32:35.187Z,30.02
2022-12-03T00:34:55.563Z,30.42
2022-12-03T00:37:15.389Z,29.33
2022-12-03T00:39:35.106Z,34.17
2022-12-03T00:41:54.891Z,31.63
2022-12-03T00:44:14.508Z,35.60
2022-12-03T00:46:34.368Z,39.55
2022-12-03T00:48:54.534Z,38.83
2022-12-03T00:51:14.226Z,33.72
2022-12-03T00:53:35.044Z,30.60
2022-12-03T00:55:55.163Z,27.92
2022-12-03T00:58:14.811Z,27.17
2022-12-03T01:00:35.485Z,26.65
2022-12-03T01:02:55.435Z,28.30
2022-12-03T01:05:16.298Z,27.27
2022-12-03T01:07:36.345Z,28.35
2022-12-03T01:09:56.337Z,27.38
2022-12-03T01:12:16.437Z,25.95
2022-12-03T01:14:36.266Z,26.95
2022-12-03T01:16:55.845Z,26.65
2022-12-03T01:19:16.285Z,27.92
2022-12-03T01:21:36.995Z,44.42
2022-12-03T01:23:56.885Z,34.17
2022-12-03T01:26:16.682Z,35.75
2022-12-03T01:28:36.436Z,31.40
2022-12-03T01:31:14.594Z,31.15
2022-12-03T01:33:34.522Z,29.05
2022-12-03T01:35:54.304Z,29.23
2022-12-03T01:38:14.306Z,28.70
2022-12-03T01:40:34.231Z,27.65
2022-12-03T01:42:54.632Z,29.75
2022-12-03T01:45:22.384Z,32.47
2022-12-03T01:47:42.781Z,35.00
2022-12-03T01:50:20.122Z,41.60
2022-12-03T01:52:41.154Z,54.67
2022-12-03T01:55:05.410Z,45.15
2022-12-03T01:57:37.305Z,37.05
2022-12-03T01:59:59.039Z,34.08
2022-12-03T02:02:23.281Z,32.20
2022-12-03T02:04:43.256Z,27.65
2022-12-03T02:07:19.807Z,30.83
2022-12-03T02:09:39.701Z,31.15
2022-12-03T02:11:59.342Z,35.22
2022-12-03T02:14:21.578Z,35.10
2022-12-03T02:16:42.343Z,39.00
2022-12-03T02:19:04.086Z,37.28
2022-12-03T02:21:45.691Z,33.42
2022-12-03T02:24:28.482Z,38.20
2022-12-03T02:26:48.474Z,35.33
2022-12-03T02:29:08.141Z,30.58
2022-12-03T02:31:28.064Z,27.23
2022-12-03T02:33:48.333Z,30.65
2022-12-03T02:36:08.978Z,28.95
2022-12-03T02:38:31.203Z,27.38
2022-12-03T02:40:56.080Z,28.00
2022-12-03T02:43:18.022Z,28.17
2022-12-03T02:45:43.916Z,31.17
2022-12-03T02:48:09.621Z,30.13
2022-12-03T02:50:40.804Z,26.63
2022-12-03T02:53:04.287Z,29.95
2022-12-03T02:55:24.720Z,29.70
2022-12-03T02:57:47.471Z,31.10
2022-12-03T03:00:10.161Z,28.48
2022-12-03T03:04:50.232Z,29.33
2022-12-03T03:07:10.888Z,39.92
2022-12-03T03:09:32.085Z,35.75
2022-12-03T03:11:51.851Z,52.22
2022-12-03T03:14:11.847Z,50.50
2022-12-03T03:16:33.799Z,53.55
2022-12-03T03:18:53.862Z,45.92
2022-12-03T03:21:14.227Z,42.65
2022-12-03T03:23:34.487Z,47.80
2022-12-03T03:25:59.008Z,42.03
2022-12-03T03:28:19.066Z,39.40
2022-12-03T03:30:41.669Z,44.50
2022-12-03T03:33:01.788Z,42.85
2022-12-03T03:35:23.958Z,39.72
2022-12-03T03:37:44.013Z,41.63
2022-12-03T03:40:04.513Z,37.38
2022-12-03T03:42:24.625Z,36.05
2022-12-03T03:44:44.829Z,32.72
2022-12-03T03:47:04.622Z,32.47
2022-12-03T03:49:25.096Z,33.92
2022-12-03T03:51:45.811Z,30.80
2022-12-03T03:54:06.317Z,23.88
2022-12-03T03:56:26.509Z,23.25
2022-12-03T03:58:46.304Z,25.25
2022-12-03T04:01:07.067Z,23.00
2022-12-03T04:03:28.070Z,22.02
2022-12-03T04:05:50.639Z,24.52
2022-12-03T04:08:10.652Z,23.73
2022-12-03T04:10:49.078Z,23.67
2022-12-03T04:13:08.649Z,25.52
2022-12-03T04:15:28.452Z,21.92
2022-12-03T04:18:09.011Z,23.35
2022-12-03T04:20:28.867Z,22.05
2022-12-03T04:22:48.501Z,22.90
2022-12-03T04:25:28.134Z,20.17
2022-12-03T04:28:06.593Z,20.48
2022-12-03T04:30:26.539Z,19.48
2022-12-03T04:33:05.159Z,20.20
2022-12-03T04:35:43.469Z,18.55
2022-12-03T04:38:03.640Z,18.08
2022-12-03T04:40:41.640Z,20.58
2022-12-03T04:43:01.617Z,18.10
2022-12-03T04:45:21.681Z,19.25
2022-12-03T04:47:41.604Z,19.13
2022-12-03T04:50:01.594Z,18.30
2022-12-03T04:52:21.563Z,19.90
2022-12-03T04:54:42.010Z,19.77
2022-12-03T04:57:02.816Z,18.83
2022-12-03T04:59:22.811Z,19.70
2022-12-03T05:01:44.047Z,27.92
2022-12-03T05:04:04.316Z,26.30
2022-12-03T05:06:24.309Z,24.52
2022-12-03T05:08:44.014Z,23.77
2022-12-03T05:11:03.917Z,48.88
2022-12-03T05:13:23.556Z,56.42
2022-12-03T05:15:43.210Z,61.63
2022-12-03T05:18:03.136Z,51.58
2022-12-03T05:20:41.056Z,49.67
2022-12-03T05:23:00.975Z,44.25
2022-12-03T05:25:21.180Z,30.20
2022-12-03T05:27:41.413Z,22.17
2022-12-03T05:30:02.184Z,21.02
2022-12-03T05:32:22.301Z,24.13
2022-12-03T05:34:42.072Z,23.10
2022-12-03T05:37:01.674Z,21.25
2022-12-03T05:39:21.633Z,18.17
2022-12-03T05:41:59.876Z,17.17
2022-12-03T05:44:20.829Z,18.55
2022-12-03T05:46:40.608Z,16.95
2022-12-03T05:49:00.593Z,18.67
2022-12-03T05:51:20.831Z,19.50
2022-12-03T05:53:40.838Z,18.67
2022-12-03T05:56:00.537Z,19.67
2022-12-03T05:58:20.175Z,18.67
2022-12-03T06:00:42.705Z,18.95
2022-12-03T06:03:03.657Z,17.80
2022-12-03T06:05:24.087Z,17.15
2022-12-03T06:07:43.822Z,16.73
2022-12-03T06:10:05.435Z,16.15
2022-12-03T06:12:25.502Z,16.80
2022-12-03T06:14:45.134Z,18.90
2022-12-03T06:17:04.618Z,19.10
2022-12-03T06:19:24.179Z,19.63
2022-12-03T06:21:44.266Z,20.25
2022-12-03T06:24:04.489Z,19.10
2022-12-03T06:26:24.483Z,22.02
2022-12-03T06:28:45.977Z,22.10
2022-12-03T06:31:06.497Z,22.02
2022-12-03T06:33:26.615Z,19.42
2022-12-03T06:35:46.325Z,17.90
2022-12-03T06:38:05.961Z,23.27
2022-12-03T06:40:26.430Z,27.60
2022-12-03T06:42:46.073Z,19.77
2022-12-03T06:45:06.437Z,16.48
2022-12-03T06:47:26.333Z,16.02
2022-12-03T06:49:46.480Z,14.13
2022-12-03T06:52:06.143Z,12.63
2022-12-03T06:54:25.919Z,14.93
2022-12-03T06:56:46.547Z,16.23
2022-12-03T06:59:06.169Z,16.63
2022-12-03T07:01:26.012Z,16.00
2022-12-03T07:03:46.071Z,15.77
2022-12-03T07:06:06.091Z,14.40
2022-12-03T07:08:26.739Z,23.33
2022-12-03T07:10:47.261Z,14.95
2022-12-03T07:13:07.060Z,19.35
2022-12-03T07:15:27.094Z,12.65
2022-12-03T07:17:47.270Z,13.75
2022-12-03T07:20:08.293Z,10.52
2022-12-03T07:22:28.014Z,10.25
2022-12-03T07:24:47.560Z,12.05
2022-12-03T07:27:07.421Z,12.73
2022-12-03T07:29:27.335Z,12.48
2022-12-03T07:31:47.479Z,14.15
2022-12-03T07:34:07.421Z,13.77
2022-12-03T07:36:27.186Z,12.30
2022-12-03T07:38:47.013Z,12.18
2022-12-03T07:41:07.074Z,13.23
2022-12-03T07:43:26.573Z,14.68
2022-12-03T07:45:46.201Z,43.47
2022-12-03T07:48:06.052Z,34.08
2022-12-03T07:50:27.672Z,19.50
2022-12-03T07:52:47.573Z,17.02
2022-12-03T07:55:07.697Z,21.15
2022-12-03T07:57:27.374Z,22.60
2022-12-03T07:59:47.024Z,25.13
2022-12-03T08:02:07.848Z,28.75
2022-12-03T08:04:28.147Z,21.48
2022-12-03T08:06:48.557Z,16.88
2022-12-03T08:09:11.956Z,16.33
2022-12-03T08:11:34.546Z,33.78
2022-12-03T08:13:55.447Z,18.70
2022-12-03T08:16:18.536Z,16.77
2022-12-03T08:18:38.716Z,15.93
2022-12-03T08:20:58.825Z,26.20
2022-12-03T08:23:20.880Z,73.13
2022-12-03T08:25:44.245Z,78.93
2022-12-03T08:30:32.900Z,43.45
2022-12-03T08:32:53.285Z,42.53
2022-12-03T08:35:20.447Z,36.60
2022-12-03T08:37:40.785Z,36.63
2022-12-03T08:40:01.255Z,33.42
2022-12-03T08:42:42.396Z,22.70
2022-12-03T08:45:22.830Z,22.67
2022-12-03T08:47:42.666Z,20.00
2022-12-03T08:50:21.882Z,23.50
2022-12-03T08:52:41.510Z,19.20
2022-12-03T08:55:29.958Z,17.85
2022-12-03T08:57:50.017Z,21.90
2022-12-03T09:00:22.266Z,16.90
2022-12-03T09:02:46.989Z,15.68
2022-12-03T09:05:18.273Z,15.00
2022-12-03T09:07:37.942Z,12.80
2022-12-03T09:09:57.716Z,13.93
2022-12-03T09:12:17.079Z,15.02
2022-12-03T09:14:36.802Z,13.85
2022-12-03T09:16:57.038Z,13.48
2022-12-03T09:19:17.127Z,19.33
2022-12-03T09:21:36.808Z,20.17
2022-12-03T09:23:56.727Z,19.02
2022-12-03T09:26:16.810Z,15.13
2022-12-03T09:28:36.409Z,13.05
2022-12-03T09:30:56.270Z,13.32
2022-12-03T09:33:16.098Z,13.15
2022-12-03T09:35:36.356Z,14.13
2022-12-03T09:37:56.472Z,13.23
2022-12-03T09:40:17.327Z,12.25
2022-12-03T09:42:37.338Z,11.60
2022-12-03T09:44:57.298Z,10.73
2022-12-03T09:47:17.093Z,10.20
2022-12-03T09:49:38.226Z,26.52
2022-12-03T09:52:01.047Z,34.85
2022-12-03T09:54:25.034Z,50.58
2022-12-03T09:56:44.752Z,46.97
2022-12-03T09:59:15.445Z,43.28
2022-12-03T10:01:36.194Z,40.08
2022-12-03T10:03:56.140Z,37.95
2022-12-03T10:06:21.828Z,28.13
2022-12-03T10:08:41.951Z,28.52
2022-12-03T10:11:02.863Z,27.58
2022-12-03T10:13:29.512Z,31.20
2022-12-03T10:15:49.187Z,31.63
2022-12-03T10:18:24.341Z,31.92
2022-12-03T10:20:44.616Z,39.58
2022-12-03T10:23:05.077Z,43.17
2022-12-03T10:25:25.001Z,38.92
2022-12-03T10:28:04.587Z,27.90
2022-12-03T10:30:27.662Z,31.77
2022-12-03T10:35:40.359Z,24.08
2022-12-03T10:38:01.359Z,23.33
2022-12-03T10:40:35.012Z,21.50
2022-12-03T10:43:14.338Z,21.15
2022-12-03T10:45:34.112Z,25.50
2022-12-03T10:48:11.837Z,31.02
2022-12-03T10:50:32.962Z,22.08
2022-12-03T10:52:52.864Z,21.10
2022-12-03T10:55:14.161Z,20.70
2022-12-03T10:57:34.112Z,26.15
2022-12-03T10:59:53.799Z,36.58
2022-12-03T11:02:22.697Z,29.73
2022-12-03T11:04:42.717Z,27.90
2022-12-03T11:07:11.111Z,39.42
2022-12-03T11:09:32.787Z,40.80
2022-12-03T11:11:53.333Z,31.30
2022-12-03T11:14:14.732Z,27.85
2022-12-03T11:16:41.180Z,33.60
2022-12-03T11:19:01.883Z,35.63
2022-12-03T11:21:22.919Z,26.85
2022-12-03T11:23:45.816Z,28.98
2022-12-03T11:26:05.550Z,27.67
2022-12-03T11:28:34.134Z,38.20
2022-12-03T11:31:01.676Z,34.22
2022-12-03T11:33:25.386Z,29.42
2022-12-03T11:36:03.880Z,34.60
2022-12-03T11:38:52.330Z,37.45
2022-12-03T11:41:28.125Z,34.17
2022-12-03T11:43:57.049Z,33.30
2022-12-03T11:46:22.486Z,27.63
2022-12-03T11:48:49.862Z,18.42
2022-12-03T11:51:14.174Z,22.23
2022-12-03T11:53:34.774Z,26.55
2022-12-03T11:56:08.402Z,27.25
2022-12-03T11:58:29.997Z,34.15
2022-12-03T12:00:51.935Z,29.98
2022-12-03T12:03:33.097Z,24.02
2022-12-03T12:06:03.561Z,19.02
2022-12-03T12:08:23.286Z,28.23
2022-12-03T12:10:44.744Z,38.47
2022-12-03T12:13:05.087Z,49.03
2022-12-03T12:15:41.831Z,44.60
2022-12-03T12:18:33.025Z,41.45
2022-12-03T12:20:53.025Z,37.60
2022-12-03T12:23:28.319Z,35.40
2022-12-03T12:25:53.743Z,108.22
2022-12-03T12:28:14.505Z,9.18
2022-12-03T12:30:34.648Z,9.20
2022-12-03T12:33:09.616Z,18.10
2022-12-03T12:35:32.133Z,16.95
2022-12-03T12:38:00.671Z,12.52
2022-12-03T12:40:26.112Z,11.90
2022-12-03T12:42:57.746Z,14.82
2022-12-03T12:45:19.316Z,14.25
2022-12-03T12:47:53.095Z,16.10
2022-12-03T12:50:14.194Z,14.23
2022-12-03T12:52:34.121Z,10.88
2022-12-03T12:54:53.869Z,20.33
2022-12-03T12:57:19.971Z,14.43
2022-12-03T12:59:39.794Z,14.85
2022-12-03T13:02:00.073Z,21.13
2022-12-03T13:04:23.605Z,16.33
2022-12-03T13:06:50.002Z,9.95
2022-12-03T13:09:16.439Z,12.77
2022-12-03T13:11:44.845Z,11.10
2022-12-03T13:14:21.265Z,15.57
2022-12-03T13:16:42.055Z,15.88
2022-12-03T13:19:02.234Z,16.88
2022-12-03T13:21:34.061Z,12.35
2022-12-03T13:23:56.481Z,8.68
2022-12-03T13:26:49.413Z,12.85
2022-12-03T13:29:14.698Z,13.43
2022-12-03T13:31:43.376Z,18.45
2022-12-03T13:34:18.839Z,15.82
2022-12-03T13:36:42.803Z,15.77
2022-12-03T13:39:13.038Z,17.30
2022-12-03T13:41:51.793Z,15.95
2022-12-03T13:44:18.923Z,15.40
2022-12-03T13:46:39.384Z,15.38
2022-12-03T13:49:01.836Z,14.05
2022-12-03T13:51:32.178Z,12.90
2022-12-03T13:53:53.528Z,12.45
2022-12-03T13:56:31.130Z,30.48
2022-12-03T13:58:51.001Z,46.63
2022-12-03T14:01:10.680Z,35.50
2022-12-03T14:03:30.700Z,38.08
2022-12-03T14:05:51.171Z,30.52
2022-12-03T14:08:10.855Z,28.67
2022-12-03T14:10:31.262Z,29.25
2022-12-03T14:12:51.143Z,34.38
2022-12-03T14:15:11.073Z,27.13
2022-12-03T14:17:31.308Z,24.30
2022-12-03T14:19:51.484Z,30.10
2022-12-03T14:22:11.562Z,29.77
2022-12-03T14:24:31.181Z,26.35
2022-12-03T14:26:50.824Z,25.73
2022-12-03T14:29:10.514Z,26.67
2022-12-03T14:31:30.335Z,33.17
2022-12-03T14:33:50.713Z,30.75
2022-12-03T14:36:11.078Z,29.52
2022-12-03T14:38:31.568Z,26.13
2022-12-03T14:40:52.718Z,31.25
2022-12-03T14:43:12.247Z,33.72
2022-12-03T14:45:34.486Z,32.95
2022-12-03T14:47:57.703Z,33.40
2022-12-03T14:50:17.409Z,31.17
2022-12-03T14:52:37.797Z,32.58
2022-12-03T14:54:57.754Z,31.25
2022-12-03T14:57:17.462Z,31.95
2022-12-03T14:59:37.033Z,31.13
2022-12-03T15:01:56.995Z,33.00
2022-12-03T15:04:17.191Z,32.20
2022-12-03T15:06:37.066Z,32.22
2022-12-03T15:08:56.813Z,24.63
2022-12-03T15:11:17.524Z,26.52
2022-12-03T15:13:37.214Z,23.70
2022-12-03T15:15:56.945Z,26.67
2022-12-03T15:18:16.538Z,25.67
2022-12-03T15:20:38.341Z,21.95
2022-12-03T15:22:58.362Z,24.60
2022-12-03T15:25:23.520Z,23.00
2022-12-03T15:27:43.129Z,24.98
2022-12-03T15:30:04.568Z,28.48
2022-12-03T15:32:24.424Z,31.70
2022-12-03T15:34:44.201Z,30.80
2022-12-03T15:37:03.809Z,27.55
2022-12-03T15:39:23.451Z,31.83
2022-12-03T15:41:43.669Z,34.35
2022-12-03T15:44:03.337Z,57.47
2022-12-03T15:46:24.098Z,57.65
2022-12-03T15:48:43.771Z,64.28
2022-12-03T15:51:03.486Z,46.42
2022-12-03T15:53:23.514Z,51.38
2022-12-03T15:55:43.046Z,50.35
2022-12-03T15:58:02.909Z,42.30
2022-12-03T16:00:22.809Z,44.10
2022-12-03T16:02:47.522Z,52.90
2022-12-03T16:05:12.707Z,58.25
2022-12-03T16:07:32.991Z,58.00
2022-12-03T16:09:53.936Z,48.92
2022-12-03T16:12:13.800Z,47.97
2022-12-03T16:14:33.311Z,44.47
2022-12-03T16:16:54.353Z,53.97
2022-12-03T16:19:14.254Z,67.32
2022-12-03T16:21:34.413Z,50.60
2022-12-03T16:23:54.982Z,46.78
2022-12-03T16:26:14.929Z,42.33
2022-12-03T16:28:34.973Z,47.40
2022-12-03T16:30:54.825Z,65.70
2022-12-03T16:33:14.916Z,75.30
2022-12-03T16:35:34.496Z,58.58
2022-12-03T16:37:54.272Z,48.65
2022-12-03T16:40:14.119Z,46.85
2022-12-03T16:42:36.275Z,44.60
2022-12-03T16:45:08.355Z,42.80
2022-12-03T16:47:33.649Z,67.30
2022-12-03T16:49:54.137Z,66.35
2022-12-03T16:52:14.139Z,62.70
2022-12-03T16:54:33.733Z,67.00
2022-12-03T16:56:53.427Z,67.85
2022-12-03T16:59:12.924Z,57.75
2022-12-03T17:01:32.677Z,66.13
2022-12-03T17:03:52.700Z,53.97
2022-12-03T17:06:12.425Z,66.68
2022-12-03T17:08:31.972Z,78.55
2022-12-03T17:10:51.817Z,67.43
2022-12-03T17:13:11.985Z,73.88
2022-12-03T17:15:32.011Z,76.05
2022-12-03T17:17:51.942Z,50.83
2022-12-03T17:20:13.861Z,53.83
2022-12-03T17:22:33.972Z,49.75
2022-12-03T17:24:54.836Z,61.30
2022-12-03T17:27:15.137Z,66.60
2022-12-03T17:29:35.139Z,84.57
2022-12-03T17:31:54.860Z,81.07
2022-12-03T17:34:15.062Z,69.05
2022-12-03T17:36:34.860Z,52.55
2022-12-03T17:38:54.447Z,40.58
2022-12-03T17:41:14.384Z,38.58
2022-12-03T17:43:34.598Z,30.58
2022-12-03T17:45:54.292Z,28.40
2022-12-03T17:48:13.989Z,25.00
2022-12-03T17:50:34.125Z,26.80
2022-12-03T17:52:53.672Z,30.77
2022-12-03T17:55:21.612Z,29.95
2022-12-03T17:57:45.996Z,29.27
2022-12-03T18:00:06.460Z,34.15
2022-12-03T18:02:26.596Z,32.72
2022-12-03T18:04:46.202Z,44.50
2022-12-03T18:07:06.596Z,39.03
2022-12-03T18:09:26.609Z,47.60
2022-12-03T18:11:46.302Z,44.13
2022-12-03T18:14:06.457Z,59.10
2022-12-03T18:16:29.527Z,63.90
2022-12-03T18:21:13.867Z,60.25
2022-12-03T18:23:34.669Z,63.28
2022-12-03T18:25:55.098Z,55.13
2022-12-03T18:28:14.609Z,59.55
2022-12-03T18:30:34.410Z,59.80
2022-12-03T18:32:54.409Z,58.17
2022-12-03T18:35:14.136Z,77.13
2022-12-03T18:37:33.995Z,78.85
2022-12-03T18:39:54.707Z,98.13
2022-12-03T18:42:20.260Z,98.65
2022-12-03T18:44:42.691Z,85.38
2022-12-03T18:47:19.916Z,67.22
2022-12-03T18:49:40.167Z,52.33
2022-12-03T18:52:00.139Z,71.93
2022-12-03T18:54:19.694Z,78.05
2022-12-03T18:56:40.499Z,50.72
2022-12-03T18:59:00.059Z,28.15
2022-12-03T19:01:21.911Z,29.50
2022-12-03T19:03:41.674Z,28.17
2022-12-03T19:06:01.384Z,32.75
2022-12-03T19:08:20.991Z,23.67
2022-12-03T19:10:42.317Z,39.17
2022-12-03T19:13:03.189Z,56.85
2022-12-03T19:15:23.329Z,36.45
2022-12-03T19:17:50.257Z,36.53
2022-12-03T19:20:11.178Z,18.63
2022-12-03T19:22:30.863Z,25.70
2022-12-03T19:24:50.380Z,19.10
2022-12-03T19:27:09.858Z,20.15
2022-12-03T19:29:29.380Z,19.92
2022-12-03T19:31:50.409Z,27.33
2022-12-03T19:34:10.329Z,21.85
2022-12-03T19:36:31.598Z,25.23
2022-12-03T19:38:57.245Z,28.52
2022-12-03T19:41:19.097Z,24.08
2022-12-03T19:43:39.068Z,23.92
2022-12-03T19:46:09.403Z,28.42
2022-12-03T19:48:30.791Z,32.92
2022-12-03T19:51:07.625Z,34.90
2022-12-03T19:53:33.303Z,37.60
2022-12-03T19:55:54.510Z,37.38
2022-12-03T19:58:14.642Z,50.88
2022-12-03T20:00:35.196Z,50.13
2022-12-03T20:02:55.341Z,61.03
2022-12-03T20:05:15.552Z,54.40
2022-12-03T20:07:35.322Z,62.35
2022-12-03T20:09:55.564Z,46.78
2022-12-03T20:12:15.608Z,38.13
2022-12-03T20:14:35.170Z,26.45
2022-12-03T20:16:54.747Z,25.58
2022-12-03T20:19:16.693Z,29.48
2022-12-03T20:21:37.715Z,25.02
2022-12-03T20:23:57.789Z,25.35
2022-12-03T20:26:19.871Z,22.55
2022-12-03T20:28:40.870Z,22.77
2022-12-03T20:31:04.009Z,17.42
2022-12-03T20:33:23.944Z,21.50
2022-12-03T20:35:43.727Z,20.65
2022-12-03T20:38:04.768Z,21.90
2022-12-03T20:40:24.519Z,24.48
2022-12-03T20:42:47.619Z,27.33
2022-12-03T20:45:08.442Z,24.00
2022-12-03T20:47:28.192Z,26.90
2022-12-03T20:49:47.932Z,29.75
2022-12-03T20:52:08.192Z,21.67
2022-12-03T20:54:27.789Z,20.45
2022-12-03T20:56:47.491Z,33.92
2022-12-03T20:59:14.405Z,28.60
2022-12-03T21:01:35.293Z,25.55
2022-12-03T21:03:56.508Z,27.80
2022-12-03T21:06:16.601Z,25.05
2022-12-03T21:08:41.589Z,31.65
2022-12-03T21:11:01.752Z,35.25
2022-12-03T21:13:21.650Z,43.25
2022-12-03T21:15:41.956Z,54.00
2022-12-03T21:18:01.631Z,49.72
2022-12-03T21:20:21.837Z,38.78
2022-12-03T21:22:41.787Z,31.65
2022-12-03T21:25:01.748Z,26.10
2022-12-03T21:27:22.123Z,32.45
2022-12-03T21:29:42.104Z,36.80
2022-12-03T21:32:01.893Z,34.17
2022-12-03T21:34:21.404Z,32.83
2022-12-03T21:36:41.269Z,20.90
2022-12-03T21:39:00.784Z,22.98
2022-12-03T21:41:21.057Z,17.55
2022-12-03T21:43:41.480Z,11.05
2022-12-03T21:47:10.048Z,11.32
2022-12-03T21:48:47.790Z,12.63
2022-12-03T21:51:10.979Z,15.88
2022-12-03T21:53:32.048Z,11.75
2022-12-03T21:55:52.239Z,9.48
2022-12-03T21:58:12.177Z,17.52
2022-12-03T22:00:31.992Z,10.75
2022-12-03T22:02:52.183Z,9.77
2022-12-03T22:05:12.084Z,10.93
2022-12-03T22:07:33.119Z,13.45
2022-12-03T22:09:53.435Z,14.60
2022-12-03T22:12:13.518Z,13.00
2022-12-03T22:14:33.239Z,13.82
2022-12-03T22:16:52.831Z,8.98
2022-12-03T22:19:12.240Z,10.30
2022-12-03T22:21:32.149Z,10.18
2022-12-03T22:23:52.348Z,13.70
2022-12-03T22:26:14.690Z,11.73
2022-12-03T22:28:35.105Z,10.80
2022-12-03T22:30:55.091Z,9.70
2022-12-03T22:33:15.008Z,10.27
2022-12-03T22:35:34.748Z,6.22
2022-12-03T22:37:54.878Z,7.07
2022-12-03T22:40:14.858Z,8.32
2022-12-03T22:42:34.506Z,9.90
2022-12-03T22:44:54.321Z,8.32
2022-12-03T22:47:13.993Z,8.63
2022-12-03T22:49:33.505Z,9.98
2022-12-03T22:51:53.079Z,10.18
2022-12-03T22:54:13.850Z,12.32
2022-12-03T22:56:34.018Z,13.65
2022-12-03T22:58:54.491Z,13.90
2022-12-03T23:01:29.160Z,12.48
2022-12-03T23:03:49.510Z,7.93
2022-12-03T23:06:10.951Z,12.18
2022-12-03T23:08:30.460Z,20.10
2022-12-03T23:10:51.629Z,17.65
2022-12-03T23:13:12.484Z,11.00
2022-12-03T23:15:32.850Z,9.15
2022-12-03T23:17:52.786Z,10.48
2022-12-03T23:20:13.241Z,10.15
2022-12-03T23:22:32.908Z,8.77
2022-12-03T23:24:52.377Z,9.65
2022-12-03T23:27:11.915Z,9.57
2022-12-03T23:29:34.024Z,10.30
2022-12-03T23:31:53.563Z,8.88
2022-12-03T23:34:13.195Z,8.85
2022-12-03T23:36:33.696Z,8.55
2022-12-03T23:38:54.015Z,8.35
2022-12-03T23:41:16.105Z,5.80
2022-12-03T23:43:35.717Z,6.68
2022-12-03T23:46:05.646Z,7.85
2022-12-03T23:48:27.601Z,5.72
2022-12-03T23:50:47.774Z,5.47
2022-12-03T23:53:07.915Z,6.30
2022-12-03T23:55:27.597Z,6.03
2022-12-03T23:57:47.328Z,4.50
